createdAt,value
2022-10-23T00:00:33.573Z,3.03
2022-10-23T00:03:34.813Z,2.15
2022-10-23T00:06:36.313Z,2.20
2022-10-23T00:09:38.065Z,2.13
2022-10-23T00:12:39.679Z,2.72
2022-10-23T00:15:41.141Z,2.90
2022-10-23T00:18:42.520Z,2.25
2022-10-23T00:21:43.831Z,2.20
2022-10-23T00:24:45.078Z,2.90
2022-10-23T00:27:46.318Z,1.85
2022-10-23T00:30:47.627Z,2.20
2022-10-23T00:33:50.116Z,1.88
2022-10-23T00:36:51.343Z,1.92
2022-10-23T00:39:52.643Z,2.92
2022-10-23T00:42:53.845Z,1.90
2022-10-23T00:45:55.585Z,1.95
2022-10-23T00:48:57.371Z,2.65
2022-10-23T00:52:04.418Z,2.00
2022-10-23T00:55:05.814Z,2.40
2022-10-23T00:58:07.049Z,2.22
2022-10-23T01:01:16.641Z,2.78
2022-10-23T01:04:18.361Z,2.42
2022-10-23T01:07:22.361Z,2.40
2022-10-23T01:10:28.960Z,2.10
2022-10-23T01:13:48.649Z,2.30
2022-10-23T01:16:55.894Z,2.67
2022-10-23T01:20:15.665Z,3.05
2022-10-23T01:23:28.908Z,2.10
2022-10-23T01:26:39.233Z,2.00
2022-10-23T01:29:49.445Z,2.08
2022-10-23T01:32:52.722Z,3.08
2022-10-23T01:35:57.131Z,2.50
2022-10-23T01:39:00.070Z,2.63
2022-10-23T01:42:07.348Z,3.60
2022-10-23T01:45:17.799Z,2.30
2022-10-23T01:48:21.368Z,2.60
2022-10-23T01:51:25.587Z,2.88
2022-10-23T01:54:29.473Z,2.13
2022-10-23T01:57:32.121Z,2.17
2022-10-23T02:00:33.878Z,1.92
2022-10-23T02:03:35.812Z,2.15
2022-10-23T02:06:37.094Z,2.35
2022-10-23T02:09:38.767Z,2.10
2022-10-23T02:12:39.975Z,2.15
2022-10-23T02:15:41.243Z,2.05
2022-10-23T02:18:45.190Z,2.70
2022-10-23T02:21:49.188Z,2.20
2022-10-23T02:24:55.656Z,1.90
2022-10-23T02:27:58.733Z,2.30
2022-10-23T02:31:02.075Z,3.20
2022-10-23T02:34:03.386Z,3.25
2022-10-23T02:37:04.619Z,2.75
2022-10-23T02:40:06.653Z,3.10
2022-10-23T02:43:11.444Z,2.03
2022-10-23T02:46:28.787Z,2.22
2022-10-23T02:49:34.823Z,1.52
2022-10-23T02:52:56.836Z,2.03
2022-10-23T02:56:03.069Z,2.08
2022-10-23T02:59:10.293Z,2.13
2022-10-23T03:02:14.323Z,1.75
2022-10-23T03:05:20.340Z,1.73
2022-10-23T03:08:21.558Z,2.35
2022-10-23T03:11:22.783Z,2.20
2022-10-23T03:14:24.050Z,1.73
2022-10-23T03:17:25.488Z,1.67
2022-10-23T03:20:26.805Z,1.80
2022-10-23T03:23:28.115Z,2.05
2022-10-23T03:26:29.439Z,1.83
2022-10-23T03:29:30.701Z,2.05
2022-10-23T03:32:31.966Z,2.20
2022-10-23T03:35:33.194Z,2.65
2022-10-23T03:38:34.415Z,2.30
2022-10-23T03:41:35.642Z,1.55
2022-10-23T03:44:36.889Z,2.83
2022-10-23T03:47:41.407Z,1.92
2022-10-23T03:50:42.959Z,2.75
2022-10-23T03:53:44.184Z,2.15
2022-10-23T03:56:45.388Z,2.30
2022-10-23T03:59:46.632Z,3.08
2022-10-23T04:02:48.265Z,2.58
2022-10-23T04:05:52.199Z,2.38
2022-10-23T04:08:53.732Z,2.00
2022-10-23T04:11:55.717Z,2.30
2022-10-23T04:14:56.987Z,2.28
2022-10-23T04:17:58.256Z,2.15
2022-10-23T04:20:59.523Z,2.10
2022-10-23T04:24:00.937Z,1.92
2022-10-23T04:27:02.165Z,2.35
2022-10-23T04:30:03.703Z,2.13
2022-10-23T04:33:04.958Z,2.20
2022-10-23T04:36:06.350Z,2.15
2022-10-23T04:39:07.580Z,1.98
2022-10-23T04:42:08.812Z,2.35
2022-10-23T04:45:10.226Z,2.22
2022-10-23T04:48:11.515Z,1.92
2022-10-23T04:51:12.736Z,2.65
2022-10-23T04:54:14.040Z,2.30
2022-10-23T04:57:15.270Z,2.00
2022-10-23T05:00:17.203Z,2.28
2022-10-23T05:03:18.737Z,2.40
2022-10-23T05:06:20.414Z,1.95
2022-10-23T05:09:22.343Z,2.30
2022-10-23T05:12:25.374Z,1.92
2022-10-23T05:15:26.824Z,1.95
2022-10-23T05:18:33.990Z,2.35
2022-10-23T05:21:36.008Z,2.35
2022-10-23T05:24:37.337Z,2.20
2022-10-23T05:27:38.542Z,2.83
2022-10-23T05:30:39.799Z,2.10
2022-10-23T05:33:41.171Z,2.40
2022-10-23T05:36:42.606Z,2.55
2022-10-23T05:39:43.859Z,2.35
2022-10-23T05:42:45.396Z,2.92
2022-10-23T05:45:46.691Z,3.50
2022-10-23T05:48:49.974Z,2.50
2022-10-23T05:51:51.327Z,2.75
2022-10-23T05:54:52.661Z,2.17
2022-10-23T05:57:53.907Z,2.35
2022-10-23T06:00:55.146Z,4.88
2022-10-23T06:03:56.453Z,2.60
2022-10-23T06:06:57.677Z,2.63
2022-10-23T06:09:59.034Z,3.15
2022-10-23T06:13:00.257Z,2.38
2022-10-23T06:16:09.717Z,2.47
2022-10-23T06:19:12.070Z,3.28
2022-10-23T06:22:13.472Z,3.22
2022-10-23T06:25:14.948Z,4.22
2022-10-23T06:28:18.307Z,2.72
2022-10-23T06:31:26.521Z,2.83
2022-10-23T06:34:28.044Z,2.45
2022-10-23T06:37:29.310Z,2.58
2022-10-23T06:40:30.560Z,2.53
2022-10-23T06:43:31.981Z,3.55
2022-10-23T06:46:35.115Z,2.53
2022-10-23T06:49:36.536Z,2.63
2022-10-23T06:52:52.365Z,4.07
2022-10-23T06:55:58.694Z,3.60
2022-10-23T06:58:59.931Z,3.67
2022-10-23T07:02:01.194Z,3.78
2022-10-23T07:05:02.552Z,3.67
2022-10-23T07:08:06.979Z,3.38
2022-10-23T07:11:09.527Z,3.72
2022-10-23T07:14:10.774Z,4.63
2022-10-23T07:17:12.050Z,4.15
2022-10-23T07:20:13.264Z,3.80
2022-10-23T07:23:16.185Z,3.38
2022-10-23T07:26:17.445Z,4.05
2022-10-23T07:29:18.707Z,4.20
2022-10-23T07:32:19.951Z,3.75
2022-10-23T07:35:21.199Z,3.58
2022-10-23T07:38:22.540Z,3.63
2022-10-23T07:41:23.773Z,3.35
2022-10-23T07:44:27.618Z,3.25
2022-10-23T07:47:29.278Z,4.20
2022-10-23T07:50:30.616Z,3.47
2022-10-23T07:53:31.848Z,3.95
2022-10-23T07:56:33.297Z,3.83
2022-10-23T07:59:37.876Z,3.80
2022-10-23T08:02:39.475Z,3.20
2022-10-23T08:05:40.713Z,3.08
2022-10-23T08:08:42.049Z,2.92
2022-10-23T08:16:18.514Z,2.70
2022-10-23T08:19:19.773Z,2.80
2022-10-23T08:22:21.202Z,2.88
2022-10-23T08:25:24.989Z,2.63
2022-10-23T08:28:28.020Z,2.92
2022-10-23T08:31:29.326Z,2.33
2022-10-23T08:34:31.233Z,3.75
2022-10-23T08:37:32.567Z,2.72
2022-10-23T08:40:34.931Z,3.17
2022-10-23T08:43:39.015Z,2.47
2022-10-23T08:49:41.525Z,2.90
2022-10-23T08:52:48.037Z,3.00
2022-10-23T08:56:12.104Z,5.18
2022-10-23T08:59:19.831Z,3.90
2022-10-23T09:02:23.280Z,3.85
2022-10-23T09:05:28.475Z,5.25
2022-10-23T09:08:38.100Z,5.40
2022-10-23T09:11:42.966Z,5.53
2022-10-23T09:14:53.153Z,5.70
2022-10-23T09:18:11.377Z,4.80
2022-10-23T09:21:12.750Z,4.05
2022-10-23T09:24:17.821Z,4.10
2022-10-23T09:27:19.272Z,3.60
2022-10-23T09:30:32.010Z,3.42
2022-10-23T09:33:34.749Z,3.35
2022-10-23T09:36:36.238Z,4.00
2022-10-23T09:39:37.729Z,3.60
2022-10-23T09:42:49.934Z,3.70
2022-10-23T09:45:59.214Z,3.20
2022-10-23T09:49:03.495Z,3.35
2022-10-23T09:52:10.176Z,3.40
2022-10-23T09:55:18.916Z,3.70
2022-10-23T09:58:21.698Z,3.72
2022-10-23T10:01:24.439Z,3.50
2022-10-23T10:04:36.525Z,3.60
2022-10-23T10:07:38.276Z,3.63
2022-10-23T10:10:43.994Z,3.85
2022-10-23T10:13:53.927Z,3.47
2022-10-23T10:17:02.889Z,3.95
2022-10-23T10:20:06.956Z,3.30
2022-10-23T10:23:17.056Z,3.63
2022-10-23T10:29:31.290Z,3.47
2022-10-23T10:33:11.004Z,3.80
2022-10-23T10:36:30.883Z,4.35
2022-10-23T10:39:44.331Z,3.80
2022-10-23T10:42:45.731Z,3.63
2022-10-23T10:45:48.408Z,3.85
2022-10-23T10:48:59.579Z,3.65
2022-10-23T10:52:06.837Z,3.83
2022-10-23T10:55:25.298Z,3.58
2022-10-23T10:58:44.872Z,3.70
2022-10-23T11:01:53.024Z,3.60
2022-10-23T11:05:13.087Z,3.58
2022-10-23T11:08:40.251Z,3.45
2022-10-23T11:11:51.478Z,3.10
2022-10-23T11:14:52.951Z,3.15
2022-10-23T11:17:56.958Z,3.42
2022-10-23T11:21:09.097Z,3.60
2022-10-23T11:24:13.432Z,4.10
2022-10-23T11:27:32.165Z,3.53
2022-10-23T11:30:33.414Z,3.50
2022-10-23T11:33:34.636Z,3.30
2022-10-23T11:36:41.971Z,3.63
2022-10-23T11:39:56.150Z,3.15
2022-10-23T11:42:57.397Z,3.17
2022-10-23T11:45:59.162Z,3.40
2022-10-23T11:49:02.989Z,3.22
2022-10-23T11:52:05.398Z,3.50
2022-10-23T11:55:17.231Z,3.33
2022-10-23T11:58:20.835Z,3.67
2022-10-23T12:01:26.094Z,3.08
2022-10-23T12:04:30.191Z,3.03
2022-10-23T12:07:33.296Z,3.58
2022-10-23T12:10:44.377Z,3.40
2022-10-23T12:13:46.827Z,3.00
2022-10-23T12:16:48.102Z,2.97
2022-10-23T12:19:51.703Z,3.03
2022-10-23T12:22:52.923Z,3.08
2022-10-23T12:26:11.044Z,3.00
2022-10-23T12:29:24.760Z,2.60
2022-10-23T12:32:26.094Z,2.70
2022-10-23T12:35:33.434Z,2.78
2022-10-23T12:38:39.918Z,3.00
2022-10-23T12:41:42.519Z,2.72
2022-10-23T12:44:43.870Z,2.70
2022-10-23T12:47:45.737Z,2.50
2022-10-23T12:50:50.830Z,2.50
2022-10-23T12:53:52.075Z,2.60
2022-10-23T12:56:53.945Z,2.45
2022-10-23T12:59:56.254Z,2.80
2022-10-23T13:02:58.513Z,2.63
2022-10-23T13:06:02.515Z,2.25
2022-10-23T13:09:03.982Z,2.33
2022-10-23T13:12:06.052Z,2.30
2022-10-23T13:15:07.240Z,1.95
2022-10-23T13:18:09.693Z,1.92
2022-10-23T13:21:16.931Z,2.33
2022-10-23T13:24:22.115Z,1.75
2022-10-23T13:27:31.638Z,2.00
2022-10-23T13:30:34.468Z,1.60
2022-10-23T13:33:46.354Z,1.80
2022-10-23T13:36:55.233Z,1.60
2022-10-23T13:40:00.687Z,1.63
2022-10-23T13:43:02.027Z,1.88
2022-10-23T13:46:03.372Z,1.35
2022-10-23T13:49:04.629Z,1.52
2022-10-23T13:52:09.037Z,1.90
2022-10-23T13:55:22.289Z,1.90
2022-10-23T13:58:23.522Z,1.58
2022-10-23T14:01:26.782Z,1.70
2022-10-23T14:04:28.115Z,1.52
2022-10-23T14:07:29.346Z,1.52
2022-10-23T14:10:30.674Z,1.90
2022-10-23T14:13:31.979Z,1.70
2022-10-23T14:16:33.411Z,1.55
2022-10-23T14:19:34.650Z,1.67
2022-10-23T14:22:35.924Z,1.80
2022-10-23T14:25:37.409Z,1.65
2022-10-23T14:28:39.011Z,1.70
2022-10-23T14:31:40.256Z,1.52
2022-10-23T14:34:42.391Z,1.70
2022-10-23T14:37:43.853Z,1.55
2022-10-23T14:40:45.273Z,1.88
2022-10-23T14:43:46.538Z,1.73
2022-10-23T14:46:47.793Z,1.85
2022-10-23T14:49:51.773Z,1.60
2022-10-23T14:52:53.077Z,2.10
2022-10-23T14:56:00.225Z,1.88
2022-10-23T14:59:04.501Z,1.85
2022-10-23T15:02:05.792Z,1.50
2022-10-23T15:05:07.391Z,1.73
2022-10-23T15:08:08.635Z,2.00
2022-10-23T15:11:12.557Z,1.80
2022-10-23T15:14:14.128Z,1.52
2022-10-23T15:17:16.004Z,1.85
2022-10-23T15:20:17.376Z,1.70
2022-10-23T15:23:18.654Z,1.65
2022-10-23T15:26:22.524Z,1.70
2022-10-23T15:29:24.182Z,1.45
2022-10-23T15:32:25.431Z,1.95
2022-10-23T15:38:33.063Z,1.48
2022-10-23T15:41:35.586Z,1.33
2022-10-23T15:44:36.995Z,1.95
2022-10-23T15:47:38.473Z,1.92
2022-10-23T15:50:39.717Z,1.83
2022-10-23T15:53:40.999Z,1.38
2022-10-23T15:56:43.057Z,1.73
2022-10-23T15:59:44.366Z,2.20
2022-10-23T16:02:46.288Z,1.70
2022-10-23T16:05:48.091Z,1.67
2022-10-23T16:08:49.479Z,1.40
2022-10-23T16:11:51.012Z,1.70
2022-10-23T16:14:52.409Z,1.80
2022-10-23T16:17:54.157Z,1.63
2022-10-23T16:20:55.518Z,1.90
2022-10-23T16:23:58.183Z,2.03
2022-10-23T16:26:59.560Z,2.20
2022-10-23T16:30:00.926Z,2.72
2022-10-23T16:33:02.168Z,3.63
2022-10-23T16:36:04.572Z,2.58
2022-10-23T16:39:06.625Z,3.10
2022-10-23T16:42:08.059Z,3.50
2022-10-23T16:45:09.611Z,2.28
2022-10-23T16:48:11.183Z,2.70
2022-10-23T16:51:14.324Z,1.33
2022-10-23T16:54:15.675Z,1.60
2022-10-23T16:57:16.922Z,1.70
2022-10-23T17:00:21.798Z,2.33
2022-10-23T17:03:23.039Z,2.60
2022-10-23T17:06:26.452Z,2.15
2022-10-23T17:09:31.105Z,1.67
2022-10-23T17:12:32.366Z,2.35
2022-10-23T17:15:33.674Z,2.35
2022-10-23T17:18:39.833Z,2.00
2022-10-23T17:21:45.015Z,1.60
2022-10-23T17:24:48.926Z,1.63
2022-10-23T17:27:52.787Z,1.45
2022-10-23T17:30:54.104Z,1.38
2022-10-23T17:34:01.986Z,1.55
2022-10-23T17:37:03.478Z,1.38
2022-10-23T17:40:06.681Z,1.17
2022-10-23T17:43:10.176Z,1.13
2022-10-23T17:46:12.165Z,1.85
2022-10-23T17:49:16.592Z,1.90
2022-10-23T17:52:18.122Z,2.35
2022-10-23T17:55:19.360Z,1.60
2022-10-23T17:58:20.692Z,1.42
2022-10-23T18:01:25.039Z,2.20
2022-10-23T18:04:26.467Z,1.90
2022-10-23T18:07:27.963Z,1.67
2022-10-23T18:10:29.484Z,1.92
2022-10-23T18:13:32.112Z,4.25
2022-10-23T18:16:37.062Z,3.67
2022-10-23T18:19:38.457Z,3.45
2022-10-23T18:22:39.761Z,1.98
2022-10-23T18:25:42.257Z,2.05
2022-10-23T18:28:44.395Z,2.13
2022-10-23T18:31:48.020Z,2.22
2022-10-23T18:34:50.977Z,2.70
2022-10-23T18:37:52.286Z,2.10
2022-10-23T18:40:55.011Z,3.28
2022-10-23T18:43:56.450Z,3.10
2022-10-23T18:46:58.567Z,2.85
2022-10-23T18:49:59.915Z,1.98
2022-10-23T18:53:01.199Z,2.30
2022-10-23T18:56:02.413Z,3.47
2022-10-23T18:59:04.888Z,2.90
2022-10-23T19:02:06.594Z,2.30
2022-10-23T19:05:08.113Z,2.03
2022-10-23T19:08:09.481Z,2.05
2022-10-23T19:11:11.701Z,2.55
2022-10-23T19:14:13.022Z,2.10
2022-10-23T19:17:19.575Z,2.20
2022-10-23T19:20:21.780Z,2.33
2022-10-23T19:23:23.046Z,1.98
2022-10-23T19:26:24.309Z,2.20
2022-10-23T19:29:26.598Z,2.25
2022-10-23T19:32:27.851Z,1.67
2022-10-23T19:35:29.107Z,2.08
2022-10-23T19:38:30.359Z,2.72
2022-10-23T19:41:32.039Z,2.00
2022-10-23T19:44:33.333Z,1.80
2022-10-23T19:47:34.757Z,1.80
2022-10-23T19:50:35.999Z,2.50
2022-10-23T19:53:37.249Z,1.83
2022-10-23T19:56:38.568Z,2.30
2022-10-23T19:59:39.829Z,1.90
2022-10-23T20:02:41.301Z,2.45
2022-10-23T20:05:45.981Z,2.20
2022-10-23T20:08:47.477Z,3.08
2022-10-23T20:11:49.227Z,2.15
2022-10-23T20:14:50.878Z,2.58
2022-10-23T20:17:52.165Z,2.30
2022-10-23T20:20:53.843Z,2.20
2022-10-23T20:23:56.687Z,1.73
2022-10-23T20:26:58.007Z,2.30
2022-10-23T20:29:59.500Z,1.80
2022-10-23T20:33:00.756Z,1.75
2022-10-23T20:36:02.386Z,1.77
2022-10-23T20:39:05.535Z,1.98
2022-10-23T20:42:07.532Z,1.77
2022-10-23T20:45:09.086Z,1.85
2022-10-23T20:48:10.318Z,1.52
2022-10-23T20:51:12.973Z,2.10
2022-10-23T20:54:14.223Z,1.58
2022-10-23T20:57:17.968Z,1.80
2022-10-23T21:00:22.569Z,1.70
2022-10-23T21:03:23.890Z,1.80
2022-10-23T21:06:26.055Z,1.40
2022-10-23T21:09:28.675Z,1.40
2022-10-23T21:12:30.070Z,1.27
2022-10-23T21:15:31.326Z,1.40
2022-10-23T21:18:45.592Z,1.50
2022-10-23T21:21:48.532Z,1.48
2022-10-23T21:24:49.783Z,1.60
2022-10-23T21:27:51.049Z,1.08
2022-10-23T21:30:52.284Z,1.80
2022-10-23T21:33:53.952Z,1.20
2022-10-23T21:40:16.543Z,1.60
2022-10-23T21:43:17.922Z,1.67
2022-10-23T21:46:19.615Z,1.00
2022-10-23T21:49:20.861Z,1.40
2022-10-23T21:52:22.114Z,1.73
2022-10-23T21:55:27.058Z,1.38
2022-10-23T21:58:28.314Z,1.25
2022-10-23T22:01:29.736Z,1.17
2022-10-23T22:04:31.236Z,1.30
2022-10-23T22:07:32.538Z,1.38
2022-10-23T22:10:34.317Z,1.35
2022-10-23T22:13:35.636Z,1.40
2022-10-23T22:16:37.177Z,1.20
2022-10-23T22:19:38.471Z,1.60
2022-10-23T22:22:39.698Z,1.75
2022-10-23T22:25:40.934Z,1.63
2022-10-23T22:28:42.166Z,1.58
2022-10-23T22:31:45.764Z,1.85
2022-10-23T22:34:52.962Z,1.90
2022-10-23T22:37:54.681Z,1.50
2022-10-23T22:40:55.892Z,1.55
2022-10-23T22:43:57.753Z,1.42
2022-10-23T22:46:59.017Z,2.30
2022-10-23T22:50:00.265Z,1.40
2022-10-23T22:53:01.521Z,1.50
2022-10-23T22:56:05.973Z,1.70
2022-10-23T22:59:07.230Z,1.67
2022-10-23T23:02:08.612Z,1.30
2022-10-23T23:05:10.917Z,1.55
2022-10-23T23:08:12.302Z,1.50
2022-10-23T23:11:14.300Z,1.50
2022-10-23T23:14:17.686Z,1.48
2022-10-23T23:17:21.707Z,1.85
2022-10-23T23:20:22.936Z,1.42
2022-10-23T23:23:24.200Z,1.38
2022-10-23T23:26:25.493Z,1.73
2022-10-23T23:29:28.247Z,1.80
2022-10-23T23:32:29.539Z,1.30
2022-10-23T23:35:30.786Z,1.85
2022-10-23T23:38:32.030Z,1.50
2022-10-23T23:41:33.376Z,1.40
2022-10-23T23:44:38.944Z,1.83
2022-10-23T23:47:47.394Z,1.25
2022-10-23T23:50:48.872Z,2.40
2022-10-23T23:53:50.154Z,1.45
2022-10-23T23:56:51.434Z,1.63
2022-10-23T23:59:52.710Z,1.45
